Time;durP1;ratioP1;P1;durP2;ratioP2;P2;SDS_P1;SDS_P2;PMS_P1;PMS_P2;Temp;Humidity;BMP_temperature;BMP_pressure;BME280_temperature;BME280_humidity;BME280_pressure;Samples;Min_cycle;Max_cycle;Signal;HPM_P1;HPM_P2
2021/06/16 00:00:08;;;;;;;6.97;3.63;;;18.50;99.90;;;;;;5081112;28;20445;-38
2021/06/16 00:02:35;;;;;;;7.30;3.60;;;18.60;99.90;;;;;;5087830;28;20312;-38
2021/06/16 00:05:00;;;;;;;3.83;3.17;;;18.50;99.90;;;;;;5086407;28;20429;-38
2021/06/16 00:07:26;;;;;;;3.60;3.17;;;18.50;99.90;;;;;;5070017;28;20462;-38
2021/06/16 00:09:52;;;;;;;6.60;3.40;;;18.50;99.90;;;;;;5087548;28;20194;-39
2021/06/16 00:12:18;;;;;;;7.30;3.97;;;18.50;99.90;;;;;;5088182;28;20181;-38
2021/06/16 00:14:43;;;;;;;4.83;3.40;;;18.50;99.90;;;;;;5083430;28;20431;-38
2021/06/16 00:17:09;;;;;;;6.93;3.50;;;18.50;99.90;;;;;;5084621;28;20425;-38
2021/06/16 00:19:36;;;;;;;5.50;3.30;;;18.50;99.90;;;;;;5087544;28;20944;-38
2021/06/16 00:22:02;;;;;;;5.50;3.97;;;18.50;99.90;;;;;;5088414;28;20885;-38
2021/06/16 00:24:28;;;;;;;5.33;3.60;;;18.40;99.90;;;;;;5087787;28;20450;-38
2021/06/16 00:26:53;;;;;;;5.00;3.23;;;18.50;99.90;;;;;;5069872;28;20498;-38
2021/06/16 00:29:19;;;;;;;10.57;3.50;;;18.60;99.90;;;;;;5086506;28;20245;-38
2021/06/16 00:31:45;;;;;;;5.23;3.27;;;18.60;99.90;;;;;;5074332;28;20185;-38
2021/06/16 00:34:11;;;;;;;6.60;4.00;;;18.60;99.90;;;;;;5078557;28;20506;-38
2021/06/16 00:36:37;;;;;;;8.03;3.77;;;18.50;99.90;;;;;;5084719;28;20193;-38
2021/06/16 00:39:06;;;;;;;5.57;3.70;;;18.50;99.90;;;;;;5086505;28;20234;-38
2021/06/16 00:41:31;;;;;;;4.43;3.50;;;18.50;99.90;;;;;;5086921;28;20192;-38
2021/06/16 00:43:57;;;;;;;7.93;3.43;;;18.40;99.90;;;;;;5069799;28;20433;-38
2021/06/16 00:46:23;;;;;;;5.50;3.50;;;18.40;99.90;;;;;;5083407;28;20219;-38
2021/06/16 00:48:49;;;;;;;5.60;3.67;;;18.40;99.90;;;;;;5079125;28;20242;-38
2021/06/16 00:51:14;;;;;;;6.30;4.43;;;18.30;99.90;;;;;;5085046;28;20188;-38
2021/06/16 00:53:40;;;;;;;5.37;3.70;;;18.30;99.90;;;;;;5087455;28;20184;-38
2021/06/16 00:56:06;;;;;;;5.77;3.50;;;18.20;99.90;;;;;;5087533;28;20749;-38
2021/06/16 00:58:32;;;;;;;5.87;3.80;;;18.20;99.90;;;;;;5087708;28;20643;-38
2021/06/16 01:01:03;;;;;;;5.03;3.73;;;18.20;99.90;;;;;;5082375;28;20212;-38
2021/06/16 01:03:52;;;;;;;4.73;4.30;;;18.20;99.90;;;;;;5081706;28;20424;-38
2021/06/16 01:06:22;;;;;;;4.50;3.87;;;18.20;99.90;;;;;;5074960;28;20808;-38
2021/06/16 01:09:10;;;;;;;6.13;4.10;;;18.10;99.90;;;;;;5086718;28;20469;-38
2021/06/16 01:11:55;;;;;;;7.77;3.90;;;18.00;99.90;;;;;;5087293;28;20568;-38
2021/06/16 01:14:30;;;;;;;4.63;3.87;;;18.10;99.90;;;;;;5087398;28;21005;-38
2021/06/16 01:17:00;;;;;;;4.30;3.73;;;18.10;99.90;;;;;;5078915;28;20515;-38
2021/06/16 01:19:41;;;;;;;4.60;3.50;;;18.10;99.90;;;;;;5081242;28;20461;-38
2021/06/16 01:22:35;;;;;;;5.30;3.70;;;18.20;99.90;;;;;;5069119;28;20804;-38
2021/06/16 01:25:06;;;;;;;6.27;3.83;;;18.20;99.90;;;;;;5087100;28;20430;-38
2021/06/16 01:27:33;;;;;;;3.97;3.67;;;18.20;99.90;;;;;;5086920;28;20848;-38
2021/06/16 01:30:00;;;;;;;4.23;3.83;;;18.10;99.90;;;;;;5085542;28;20449;-38
2021/06/16 01:32:26;;;;;;;6.10;4.07;;;18.10;99.90;;;;;;5079169;28;20423;-38
2021/06/16 01:34:53;;;;;;;5.63;4.80;;;18.10;99.90;;;;;;5082465;28;20501;-38
2021/06/16 01:37:19;;;;;;;5.27;3.97;;;18.00;99.90;;;;;;5086187;28;20249;-38
2021/06/16 01:39:46;;;;;;;5.53;4.10;;;18.00;99.90;;;;;;5066870;28;20972;-38
2021/06/16 01:42:16;;;;;;;5.30;4.10;;;18.00;99.90;;;;;;5086434;28;20438;-38
2021/06/16 01:44:42;;;;;;;5.07;4.40;;;18.00;99.90;;;;;;5086938;28;20505;-38
2021/06/16 01:47:09;;;;;;;4.37;3.97;;;17.90;99.90;;;;;;5075859;28;20513;-38
2021/06/16 01:49:37;;;;;;;4.37;3.97;;;17.80;99.90;;;;;;5084672;28;20430;-38
2021/06/16 01:52:04;;;;;;;4.80;3.97;;;17.80;99.90;;;;;;5086138;28;20414;-38
2021/06/16 01:54:32;;;;;;;6.83;4.27;;;17.90;99.90;;;;;;5086147;28;20418;-38
2021/06/16 01:56:59;;;;;;;5.23;3.80;;;17.90;99.90;;;;;;5086438;28;20437;-38
2021/06/16 01:59:27;;;;;;;4.70;4.20;;;17.80;99.90;;;;;;5085675;28;20726;-38
2021/06/16 02:01:53;;;;;;;5.13;3.90;;;17.80;99.90;;;;;;5060625;28;20423;-38
2021/06/16 02:04:19;;;;;;;4.80;4.37;;;17.70;99.90;;;;;;5081252;28;20421;-38
2021/06/16 02:07:03;;;;;;;6.00;4.10;;;17.60;99.90;;;;;;5068073;28;20932;-38
2021/06/16 02:09:32;;;;;;;4.97;4.07;;;17.50;99.90;;;;;;5085540;28;20410;-38
2021/06/16 02:11:58;;;;;;;3.83;3.33;;;17.50;99.90;;;;;;5086360;28;20466;-38
2021/06/16 02:14:25;;;;;;;4.43;4.00;;;17.50;99.90;;;;;;5086251;28;20473;-38
2021/06/16 02:17:01;;;;;;;4.77;4.17;;;17.40;99.90;;;;;;5058473;28;20173;-38
2021/06/16 02:19:30;;;;;;;6.73;3.90;;;17.40;99.90;;;;;;5083824;28;20438;-38
2021/06/16 02:21:57;;;;;;;5.40;3.90;;;17.30;99.90;;;;;;5083509;28;20421;-38
2021/06/16 02:24:24;;;;;;;5.67;4.30;;;17.30;99.90;;;;;;5085605;28;20426;-38
2021/06/16 02:26:51;;;;;;;5.13;4.47;;;17.10;99.90;;;;;;5085731;28;21109;-38
2021/06/16 02:29:18;;;;;;;5.47;4.97;;;17.10;99.90;;;;;;5066722;28;20461;-38
2021/06/16 02:31:43;;;;;;;5.80;4.40;;;16.90;99.90;;;;;;5059493;28;20489;-38
2021/06/16 02:34:10;;;;;;;3.93;3.60;;;17.00;99.90;;;;;;5082358;28;20985;-38
2021/06/16 02:36:39;;;;;;;6.60;4.90;;;16.90;99.90;;;;;;5067526;28;20188;-38
2021/06/16 02:39:11;;;;;;;6.00;5.30;;;16.80;99.90;;;;;;5085298;28;20425;-38
2021/06/16 02:41:37;;;;;;;5.83;4.20;;;16.70;99.90;;;;;;5071119;28;20685;-38
2021/06/16 02:44:05;;;;;;;6.07;4.57;;;16.70;99.90;;;;;;5085304;28;20916;-38
2021/06/16 02:46:34;;;;;;;5.43;4.30;;;16.60;99.90;;;;;;5079351;28;20447;-38
2021/06/16 02:49:02;;;;;;;5.70;4.30;;;16.80;99.90;;;;;;5079288;28;20454;-38
2021/06/16 02:51:28;;;;;;;4.97;4.17;;;16.80;99.90;;;;;;5077127;28;20406;-38
2021/06/16 02:53:55;;;;;;;5.10;4.30;;;16.80;99.90;;;;;;5067383;28;20403;-38
2021/06/16 02:56:22;;;;;;;5.40;4.90;;;16.70;99.90;;;;;;5085306;28;20419;-38
2021/06/16 02:58:48;;;;;;;5.63;4.10;;;16.60;99.90;;;;;;5085100;28;20940;-38
2021/06/16 03:01:17;;;;;;;6.73;4.93;;;16.60;99.90;;;;;;5087340;28;20794;-38
2021/06/16 03:03:47;;;;;;;6.87;4.70;;;16.60;99.90;;;;;;5077742;28;20430;-38
2021/06/16 03:06:15;;;;;;;5.43;4.93;;;16.60;99.90;;;;;;5084400;28;20410;-38
2021/06/16 03:08:43;;;;;;;7.67;4.90;;;16.60;99.90;;;;;;5070786;28;20458;-38
2021/06/16 03:11:10;;;;;;;6.30;5.20;;;16.50;99.90;;;;;;5071062;28;20497;-38
2021/06/16 03:13:36;;;;;;;10.23;5.10;;;16.40;99.90;;;;;;5071259;28;20426;-38
2021/06/16 03:16:03;;;;;;;5.80;5.20;;;16.40;99.90;;;;;;5087944;28;20426;-38
2021/06/16 03:18:29;;;;;;;6.60;5.93;;;16.30;99.90;;;;;;5083074;28;20644;-38
2021/06/16 03:20:58;;;;;;;4.80;4.40;;;16.40;99.90;;;;;;5087496;28;20512;-38
2021/06/16 03:23:24;;;;;;;7.73;5.00;;;16.40;99.90;;;;;;5089106;28;20414;-38
2021/06/16 03:25:51;;;;;;;6.53;5.17;;;16.30;99.90;;;;;;5089526;28;20434;-38
2021/06/16 03:28:18;;;;;;;6.23;5.63;;;16.30;99.90;;;;;;5089343;28;20553;-38
2021/06/16 03:30:44;;;;;;;7.60;5.83;;;16.30;99.90;;;;;;5069907;28;20588;-38
2021/06/16 03:33:12;;;;;;;6.67;5.93;;;16.40;99.90;;;;;;5064820;28;20813;-38
2021/06/16 03:35:38;;;;;;;7.63;5.90;;;16.40;99.90;;;;;;5067785;28;20422;-38
2021/06/16 03:38:04;;;;;;;6.50;5.93;;;16.50;99.90;;;;;;5070763;28;20981;-38
2021/06/16 03:40:30;;;;;;;6.90;5.90;;;16.40;99.90;;;;;;5086720;28;20422;-38
2021/06/16 03:42:57;;;;;;;7.90;5.93;;;16.50;99.90;;;;;;5070857;28;20928;-38
2021/06/16 03:45:24;;;;;;;11.43;6.17;;;16.50;99.90;;;;;;5071012;28;20436;-38
2021/06/16 03:47:55;;;;;;;7.80;5.40;;;16.40;99.90;;;;;;5061729;28;20476;-38
2021/06/16 03:50:21;;;;;;;6.37;5.40;;;16.40;99.90;;;;;;5085006;28;20415;-38
2021/06/16 03:52:47;;;;;;;7.90;6.40;;;16.40;99.90;;;;;;5068024;28;20433;-38
2021/06/16 03:55:17;;;;;;;9.93;7.10;;;16.40;99.90;;;;;;5089037;28;20426;-38
2021/06/16 03:57:43;;;;;;;6.43;5.67;;;16.40;99.90;;;;;;5088646;28;20928;-38
2021/06/16 04:00:09;;;;;;;6.10;5.40;;;16.40;99.90;;;;;;5070135;28;20871;-38
2021/06/16 04:02:36;;;;;;;8.20;7.00;;;16.50;99.90;;;;;;5081341;28;20438;-38
2021/06/16 04:05:03;;;;;;;9.60;6.83;;;16.60;99.90;;;;;;5066980;28;20440;-38
2021/06/16 04:07:31;;;;;;;13.33;6.43;;;16.60;99.90;;;;;;5086976;28;20450;-38
2021/06/16 04:09:58;;;;;;;14.03;6.70;;;16.60;99.90;;;;;;5087790;28;20442;-38
2021/06/16 04:12:24;;;;;;;7.53;6.23;;;16.60;99.90;;;;;;5088026;28;20990;-38
2021/06/16 04:14:50;;;;;;;7.33;6.50;;;16.60;99.90;;;;;;5088119;28;20470;-38
2021/06/16 04:17:17;;;;;;;6.50;5.77;;;16.60;99.90;;;;;;5082536;28;20439;-38
2021/06/16 04:19:44;;;;;;;8.33;6.70;;;16.60;99.90;;;;;;5085490;28;20414;-38
2021/06/16 04:22:09;;;;;;;8.03;6.10;;;16.70;99.90;;;;;;5086329;28;20794;-38
2021/06/16 04:24:35;;;;;;;6.80;6.10;;;16.70;99.90;;;;;;5088021;28;21063;-38
2021/06/16 04:27:01;;;;;;;6.70;5.70;;;16.80;99.90;;;;;;5088172;28;20291;-38
2021/06/16 04:29:26;;;;;;;6.83;6.13;;;16.90;99.90;;;;;;5069244;28;20198;-38
2021/06/16 04:31:52;;;;;;;11.00;6.30;;;16.90;99.90;;;;;;5083478;28;20192;-38
2021/06/16 04:34:18;;;;;;;6.70;6.00;;;17.00;99.90;;;;;;5084634;28;20234;-38
2021/06/16 04:36:43;;;;;;;7.27;6.13;;;17.00;99.90;;;;;;5081858;28;20188;-38
2021/06/16 04:39:09;;;;;;;9.10;6.27;;;17.00;99.90;;;;;;5069358;28;20189;-38
2021/06/16 04:41:35;;;;;;;11.87;6.43;;;17.00;99.90;;;;;;5085545;28;20181;-39
2021/06/16 04:44:01;;;;;;;6.20;5.60;;;17.00;99.90;;;;;;5050097;28;20181;-38
2021/06/16 04:46:27;;;;;;;9.03;6.80;;;17.10;99.90;;;;;;5047998;28;20438;-38
2021/06/16 04:48:53;;;;;;;7.43;6.70;;;17.20;99.90;;;;;;5080518;28;20219;-38
2021/06/16 04:51:18;;;;;;;6.80;6.20;;;17.20;99.90;;;;;;5066746;28;20622;-38
2021/06/16 04:53:44;;;;;;;8.23;6.07;;;17.20;99.90;;;;;;5088074;28;20184;-39
2021/06/16 04:56:10;;;;;;;7.73;6.30;;;17.20;99.90;;;;;;5081458;28;20271;-38
2021/06/16 04:58:36;;;;;;;8.90;6.30;;;17.30;99.90;;;;;;5087303;28;20246;-38
2021/06/16 05:01:02;;;;;;;7.80;6.90;;;17.30;99.90;;;;;;5087599;28;20181;-38
2021/06/16 05:03:27;;;;;;;9.53;6.30;;;17.30;99.90;;;;;;5079384;28;20211;-38
2021/06/16 05:05:53;;;;;;;12.03;6.57;;;17.30;99.90;;;;;;5087029;28;20426;-38
2021/06/16 05:08:19;;;;;;;6.90;6.30;;;17.40;99.90;;;;;;5087646;28;20215;-38
2021/06/16 05:10:44;;;;;;;8.80;7.20;;;17.40;99.90;;;;;;5086379;28;20187;-38
2021/06/16 05:13:10;;;;;;;7.83;6.40;;;17.50;99.90;;;;;;5087141;28;20184;-38
2021/06/16 05:15:36;;;;;;;8.20;6.57;;;17.60;99.90;;;;;;5076800;28;20690;-38
2021/06/16 05:18:04;;;;;;;9.87;6.00;;;17.60;99.90;;;;;;5063425;28;20284;-38
2021/06/16 05:20:29;;;;;;;9.00;6.70;;;17.60;99.90;;;;;;5060428;28;20519;-38
2021/06/16 05:22:57;;;;;;;10.33;7.50;;;17.70;99.90;;;;;;5078314;28;20525;-38
2021/06/16 05:25:24;;;;;;;9.20;7.10;;;17.80;99.90;;;;;;5087412;28;20531;-38
2021/06/16 05:27:49;;;;;;;11.50;6.37;;;17.90;99.90;;;;;;5086545;28;20462;-38
2021/06/16 05:30:18;;;;;;;9.23;7.03;;;17.90;99.90;;;;;;5068249;28;20430;-38
2021/06/16 05:32:43;;;;;;;7.63;6.93;;;18.00;99.90;;;;;;5057464;28;20179;-38
2021/06/16 05:35:10;;;;;;;9.83;6.87;;;18.10;99.90;;;;;;5079071;28;20415;-38
2021/06/16 05:37:36;;;;;;;7.17;6.50;;;18.20;99.90;;;;;;5064398;28;20211;-38
2021/06/16 05:40:03;;;;;;;7.83;6.33;;;18.30;99.90;;;;;;5084544;28;20415;-38
2021/06/16 05:42:28;;;;;;;7.73;7.13;;;18.50;99.90;;;;;;5086728;28;20837;-38
2021/06/16 05:44:54;;;;;;;7.97;6.37;;;18.60;99.90;;;;;;5087016;28;20422;-38
2021/06/16 05:47:20;;;;;;;9.57;7.50;;;18.70;99.90;;;;;;5085304;28;20223;-38
2021/06/16 05:49:45;;;;;;;9.00;6.77;;;18.80;99.90;;;;;;5053064;28;20177;-39
2021/06/16 05:52:12;;;;;;;10.23;7.17;;;18.90;99.90;;;;;;5080918;28;20180;-38
2021/06/16 05:54:38;;;;;;;9.53;7.83;;;19.00;99.90;;;;;;5078405;28;20189;-38
2021/06/16 05:57:04;;;;;;;7.73;7.00;;;19.00;99.90;;;;;;5084486;28;20803;-38
2021/06/16 05:59:30;;;;;;;9.60;7.60;;;19.20;99.90;;;;;;5082358;28;20471;-38
2021/06/16 06:01:56;;;;;;;13.10;7.93;;;19.30;99.90;;;;;;5085381;28;20180;-39
2021/06/16 06:04:21;;;;;;;10.73;7.90;;;19.30;99.90;;;;;;5078831;28;20192;-39
2021/06/16 06:06:47;;;;;;;8.37;7.43;;;19.40;99.90;;;;;;5082130;28;20275;-39
2021/06/16 06:09:12;;;;;;;10.63;7.70;;;19.50;99.90;;;;;;5085464;28;20212;-39
2021/06/16 06:11:38;;;;;;;9.87;8.10;;;19.50;99.90;;;;;;5086275;28;20392;-38
2021/06/16 06:14:05;;;;;;;9.23;7.13;;;19.60;99.90;;;;;;5086016;28;20777;-38
2021/06/16 06:16:31;;;;;;;12.17;7.40;;;19.70;99.90;;;;;;5085614;28;20177;-38
2021/06/16 06:18:56;;;;;;;9.63;7.30;;;19.80;99.90;;;;;;5083562;28;20430;-38
2021/06/16 06:21:23;;;;;;;10.73;7.03;;;19.90;99.90;;;;;;5066111;28;20238;-38
2021/06/16 06:23:49;;;;;;;10.13;7.17;;;20.00;99.90;;;;;;5083510;28;20272;-38
2021/06/16 06:26:14;;;;;;;7.63;6.63;;;20.10;99.90;;;;;;5081344;28;20837;-39
2021/06/16 06:28:43;;;;;;;10.03;6.63;;;20.30;99.90;;;;;;5068585;28;20236;-38
2021/06/16 06:31:09;;;;;;;10.33;7.20;;;20.50;99.90;;;;;;5085669;28;20176;-38
2021/06/16 06:33:35;;;;;;;9.80;7.30;;;20.60;99.90;;;;;;5078079;28;20495;-38
2021/06/16 06:36:00;;;;;;;7.53;6.83;;;20.70;99.90;;;;;;5084042;28;20733;-38
2021/06/16 06:38:26;;;;;;;7.60;6.80;;;20.80;99.90;;;;;;5082584;28;20192;-39
2021/06/16 06:40:52;;;;;;;8.33;6.90;;;20.90;99.90;;;;;;5082206;28;20189;-38
2021/06/16 06:43:17;;;;;;;9.20;6.63;;;21.00;99.90;;;;;;5087200;28;20253;-38
2021/06/16 06:45:44;;;;;;;8.50;7.23;;;21.20;99.90;;;;;;5085818;28;20568;-38
2021/06/16 06:48:10;;;;;;;11.23;7.07;;;21.30;99.90;;;;;;5079039;28;20308;-38
2021/06/16 06:50:36;;;;;;;8.07;6.63;;;21.50;99.90;;;;;;5050194;28;20513;-38
2021/06/16 06:53:02;;;;;;;8.30;7.47;;;21.50;99.90;;;;;;5081256;28;20207;-38
2021/06/16 06:55:28;;;;;;;8.07;6.63;;;21.60;99.90;;;;;;5086793;28;20239;-38
2021/06/16 06:57:54;;;;;;;8.83;6.30;;;21.60;99.90;;;;;;5085831;28;20275;-38
2021/06/16 07:00:20;;;;;;;10.13;6.73;;;21.70;99.90;;;;;;5085386;28;20513;-38
2021/06/16 07:02:47;;;;;;;8.57;6.50;;;21.80;99.90;;;;;;5081732;28;20650;-38
2021/06/16 07:05:13;;;;;;;6.63;5.93;;;21.80;99.90;;;;;;5082312;28;20423;-38
2021/06/16 07:07:39;;;;;;;10.70;6.40;;;21.90;99.90;;;;;;5081511;28;20960;-38
2021/06/16 07:10:05;;;;;;;7.03;6.33;;;22.00;99.90;;;;;;5085399;28;20419;-38
2021/06/16 07:12:31;;;;;;;9.70;6.30;;;22.10;99.90;;;;;;5067821;28;20643;-38
2021/06/16 07:14:57;;;;;;;9.93;6.10;;;22.20;99.90;;;;;;5085953;28;20497;-38
2021/06/16 07:17:23;;;;;;;7.50;5.80;;;22.20;99.90;;;;;;5084470;28;20215;-38
2021/06/16 07:19:50;;;;;;;9.63;6.30;;;22.30;99.90;;;;;;5074645;28;20444;-38
2021/06/16 07:22:16;;;;;;;8.57;6.43;;;22.30;99.90;;;;;;5085611;28;20418;-38
2021/06/16 07:24:42;;;;;;;7.80;6.90;;;22.50;99.90;;;;;;5086111;28;20428;-38
2021/06/16 07:27:10;;;;;;;9.50;6.70;;;22.60;99.90;;;;;;5086181;28;20454;-39
2021/06/16 07:29:36;;;;;;;8.00;5.40;;;22.70;99.90;;;;;;5085242;28;20215;-38
2021/06/16 07:32:02;;;;;;;7.10;6.37;;;22.70;99.90;;;;;;5067237;28;20992;-39
2021/06/16 07:34:28;;;;;;;8.30;7.17;;;22.80;99.90;;;;;;5071874;28;20427;-39
2021/06/16 07:36:54;;;;;;;11.50;7.17;;;22.90;99.90;;;;;;5082491;28;20473;-39
2021/06/16 07:39:20;;;;;;;6.23;5.57;;;22.90;99.90;;;;;;5077264;28;20204;-38
2021/06/16 07:41:46;;;;;;;7.20;6.50;;;23.10;99.90;;;;;;5085106;28;20484;-39
2021/06/16 07:44:12;;;;;;;6.80;6.20;;;23.10;99.90;;;;;;5085465;28;20407;-39
2021/06/16 07:46:38;;;;;;;8.80;6.97;;;23.20;99.90;;;;;;5086182;28;20553;-39
2021/06/16 07:49:03;;;;;;;8.60;6.40;;;23.30;99.90;;;;;;5058216;28;20565;-39
2021/06/16 07:51:29;;;;;;;7.73;6.93;;;23.40;99.90;;;;;;5083374;28;20315;-38
2021/06/16 07:53:55;;;;;;;6.77;5.83;;;23.40;99.90;;;;;;5066103;28;20821;-38
2021/06/16 07:56:21;;;;;;;6.90;6.20;;;23.40;99.90;;;;;;5070941;28;20208;-38
2021/06/16 07:58:46;;;;;;;7.97;6.40;;;23.50;99.90;;;;;;5088637;28;20732;-39
2021/06/16 08:01:12;;;;;;;7.33;6.67;;;23.60;99.90;;;;;;5089437;28;20250;-38
2021/06/16 08:03:38;;;;;;;7.73;6.60;;;23.60;99.90;;;;;;5088024;28;20675;-39
2021/06/16 08:06:04;;;;;;;13.10;6.50;;;23.70;99.90;;;;;;5083706;28;20208;-39
2021/06/16 08:08:30;;;;;;;8.03;6.70;;;23.70;99.90;;;;;;5069958;28;20216;-38
2021/06/16 08:10:56;;;;;;;8.10;6.73;;;23.80;99.90;;;;;;5070377;28;20410;-38
2021/06/16 08:13:21;;;;;;;9.90;6.43;;;23.80;99.90;;;;;;5088711;28;20483;-39
2021/06/16 08:15:47;;;;;;;8.00;7.20;;;23.80;99.90;;;;;;5089117;28;20545;-38
2021/06/16 08:18:13;;;;;;;9.63;6.83;;;23.80;99.90;;;;;;5070021;28;20199;-39
2021/06/16 08:20:39;;;;;;;10.57;7.47;;;23.80;99.90;;;;;;5082071;28;20185;-38
2021/06/16 08:23:06;;;;;;;12.20;8.20;;;23.80;99.90;;;;;;5085074;28;20776;-38
2021/06/16 08:25:34;;;;;;;12.20;7.73;;;23.90;99.90;;;;;;5088976;28;20505;-39
2021/06/16 08:28:00;;;;;;;8.83;7.93;;;23.90;99.90;;;;;;5088618;28;20458;-39
2021/06/16 08:30:26;;;;;;;10.00;6.80;;;24.00;99.90;;;;;;5087994;28;20815;-39
2021/06/16 08:32:52;;;;;;;9.00;6.87;;;24.10;99.90;;;;;;5087489;28;20436;-39
2021/06/16 08:35:18;;;;;;;13.27;6.33;;;24.20;99.90;;;;;;5081227;28;20498;-38
2021/06/16 08:37:46;;;;;;;9.60;6.77;;;24.40;99.90;;;;;;5083271;28;20188;-39
2021/06/16 08:40:13;;;;;;;10.50;7.80;;;24.50;99.90;;;;;;5086017;28;20422;-39
2021/06/16 08:42:39;;;;;;;8.80;7.60;;;24.50;99.90;;;;;;5088070;28;21036;-38
2021/06/16 08:45:07;;;;;;;8.40;7.50;;;24.50;99.90;;;;;;5088490;28;20454;-38
2021/06/16 08:47:34;;;;;;;7.57;6.87;;;24.50;99.90;;;;;;5088250;28;20800;-39
2021/06/16 08:50:04;;;;;;;9.23;7.50;;;24.60;99.90;;;;;;5080615;28;20517;-38
2021/06/16 08:52:30;;;;;;;7.53;6.60;;;24.70;99.90;;;;;;5067323;28;20415;-39
2021/06/16 08:54:56;;;;;;;9.20;6.30;;;24.80;99.90;;;;;;5070068;28;20415;-39
2021/06/16 08:57:22;;;;;;;6.90;6.30;;;25.00;99.90;;;;;;5069347;28;20276;-39
2021/06/16 08:59:47;;;;;;;7.43;6.80;;;25.10;99.90;;;;;;5087185;28;20572;-39
2021/06/16 09:02:13;;;;;;;7.80;6.67;;;25.20;99.90;;;;;;5069850;28;20187;-39
2021/06/16 09:04:43;;;;;;;7.60;6.80;;;25.30;99.60;;;;;;5082727;28;20188;-39
2021/06/16 09:07:18;;;;;;;8.17;6.63;;;25.30;99.30;;;;;;5083354;28;20518;-38
2021/06/16 09:09:44;;;;;;;7.10;6.50;;;25.40;99.30;;;;;;5078222;28;20406;-39
2021/06/16 09:12:12;;;;;;;8.70;6.43;;;25.50;99.50;;;;;;5087942;28;20418;-39
2021/06/16 09:14:52;;;;;;;6.50;6.00;;;25.60;99.50;;;;;;5087834;28;20850;-39
2021/06/16 09:17:21;;;;;;;7.07;6.37;;;25.70;99.30;;;;;;5087418;28;20456;-39
2021/06/16 09:19:55;;;;;;;12.73;6.90;;;25.80;99.20;;;;;;5078081;28;20575;-39
2021/06/16 09:22:30;;;;;;;7.23;6.50;;;26.00;99.60;;;;;;5077698;28;20498;-39
2021/06/16 09:24:56;;;;;;;8.07;7.27;;;26.20;98.90;;;;;;5065282;28;21009;-39
2021/06/16 09:27:40;;;;;;;7.13;6.43;;;26.20;98.80;;;;;;5087871;28;20486;-39
2021/06/16 09:30:24;;;;;;;9.53;6.33;;;26.40;98.10;;;;;;5086772;28;20410;-39
2021/06/16 09:32:58;;;;;;;8.80;7.00;;;26.40;98.00;;;;;;5087770;28;20421;-39
2021/06/16 09:35:36;;;;;;;7.70;7.00;;;26.50;98.00;;;;;;5085521;28;20788;-39
2021/06/16 09:38:04;;;;;;;7.30;6.53;;;26.50;98.70;;;;;;5082118;28;20929;-39
2021/06/16 09:40:36;;;;;;;8.63;7.93;;;26.60;99.20;;;;;;5066970;28;20513;-39
2021/06/16 09:43:09;;;;;;;7.83;7.03;;;26.70;98.40;;;;;;5086956;28;20832;-38
2021/06/16 09:45:37;;;;;;;7.70;6.80;;;26.70;99.20;;;;;;5087556;28;20418;-39
2021/06/16 09:48:45;;;;;;;7.23;6.53;;;26.80;98.10;;;;;;5069230;28;20480;-39
2021/06/16 09:51:26;;;;;;;7.73;6.93;;;26.90;98.10;;;;;;5062649;28;20433;-39
2021/06/16 09:54:14;;;;;;;7.63;6.97;;;27.00;97.70;;;;;;5080522;28;20418;-39
2021/06/16 09:56:45;;;;;;;8.67;6.73;;;27.10;97.00;;;;;;5058154;28;20422;-39
2021/06/16 09:59:13;;;;;;;7.60;6.90;;;27.10;96.80;;;;;;5086418;28;20430;-39
2021/06/16 10:01:54;;;;;;;8.33;6.77;;;27.10;96.70;;;;;;5087276;28;20433;-39
2021/06/16 10:04:36;;;;;;;7.90;7.10;;;27.20;98.30;;;;;;5081567;28;20450;-39
2021/06/16 10:07:12;;;;;;;8.27;6.73;;;27.30;98.40;;;;;;5081351;28;20420;-39
2021/06/16 10:09:39;;;;;;;7.30;6.70;;;27.40;97.80;;;;;;5079765;28;20410;-39
2021/06/16 10:12:06;;;;;;;11.90;7.83;;;27.50;97.10;;;;;;5086954;28;20411;-39
2021/06/16 10:14:32;;;;;;;8.63;7.77;;;27.50;97.10;;;;;;5068966;28;20426;-39
2021/06/16 10:16:58;;;;;;;9.40;8.60;;;27.60;97.50;;;;;;5086859;28;20476;-39
2021/06/16 10:19:24;;;;;;;8.50;7.67;;;27.70;97.50;;;;;;5085548;28;20434;-39
2021/06/16 10:21:50;;;;;;;9.10;8.20;;;27.80;97.90;;;;;;5080803;28;20475;-39
2021/06/16 10:24:16;;;;;;;10.13;8.73;;;27.90;97.50;;;;;;5066796;28;20831;-39
2021/06/16 10:26:43;;;;;;;9.00;8.20;;;27.90;97.10;;;;;;5086378;28;20200;-39
2021/06/16 10:29:15;;;;;;;8.60;7.70;;;28.00;96.90;;;;;;5085967;28;20311;-39
2021/06/16 10:31:42;;;;;;;8.50;7.70;;;28.00;96.80;;;;;;5086291;28;20987;-39
2021/06/16 10:34:09;;;;;;;8.80;8.00;;;28.10;96.80;;;;;;5086233;28;20434;-39
2021/06/16 10:36:36;;;;;;;8.90;8.20;;;28.20;98.20;;;;;;5059890;28;20423;-39
2021/06/16 10:39:02;;;;;;;9.20;8.40;;;28.30;97.70;;;;;;5083338;28;20423;-39
2021/06/16 10:41:49;;;;;;;9.87;8.70;;;28.30;96.90;;;;;;5067851;28;20418;-39
2021/06/16 10:44:20;;;;;;;9.30;8.40;;;28.30;96.70;;;;;;5086389;28;20455;-39
2021/06/16 10:46:51;;;;;;;9.50;8.33;;;28.30;97.60;;;;;;5078283;28;21022;-39
2021/06/16 10:49:50;;;;;;;11.17;8.43;;;28.30;97.00;;;;;;5067405;28;20490;-39
2021/06/16 10:52:22;;;;;;;9.23;8.23;;;28.40;96.70;;;;;;5064409;28;20503;-39
2021/06/16 10:54:56;;;;;;;8.83;8.13;;;28.50;97.90;;;;;;5055080;28;20430;-39
2021/06/16 10:57:23;;;;;;;10.27;9.40;;;28.60;97.70;;;;;;5085877;28;20454;-39
2021/06/16 10:59:50;;;;;;;9.80;8.70;;;28.60;96.90;;;;;;5085511;28;20478;-39
2021/06/16 11:02:16;;;;;;;10.07;9.23;;;28.70;97.00;;;;;;5086421;28;20928;-39
2021/06/16 11:04:43;;;;;;;9.73;8.90;;;28.80;96.50;;;;;;5080606;28;20418;-39
2021/06/16 11:07:31;;;;;;;10.53;9.53;;;28.80;97.20;;;;;;5081640;28;20414;-39
2021/06/16 11:10:04;;;;;;;10.10;9.13;;;28.70;96.30;;;;;;5076622;28;20410;-39
2021/06/16 11:12:37;;;;;;;9.47;8.67;;;28.80;97.30;;;;;;5032038;28;20506;-39
2021/06/16 11:15:04;;;;;;;12.13;9.57;;;28.90;96.70;;;;;;5080032;28;20423;-39
2021/06/16 11:17:30;;;;;;;10.63;9.30;;;29.00;97.10;;;;;;5086593;28;20418;-39
2021/06/16 11:20:00;;;;;;;10.80;9.80;;;29.10;96.00;;;;;;5079087;28;20814;-39
2021/06/16 11:22:26;;;;;;;9.90;8.47;;;29.20;97.90;;;;;;5086657;28;20192;-39
2021/06/16 11:25:36;;;;;;;10.70;9.70;;;29.30;96.60;;;;;;5090009;28;20429;-39
2021/06/16 11:28:07;;;;;;;9.07;8.23;;;29.30;95.50;;;;;;5004775;28;20502;-39
2021/06/16 11:30:38;;;;;;;9.17;8.37;;;29.30;95.50;;;;;;5006481;28;20418;-39
2021/06/16 11:33:15;;;;;;;10.10;9.30;;;29.40;95.30;;;;;;5048863;28;20437;-39
2021/06/16 11:35:49;;;;;;;10.40;9.10;;;29.50;95.70;;;;;;5084479;28;20422;-39
2021/06/16 11:38:18;;;;;;;9.80;9.00;;;29.50;95.30;;;;;;5086251;28;20413;-39
2021/06/16 11:41:10;;;;;;;8.40;7.80;;;29.50;95.70;;;;;;5084570;28;20422;-39
2021/06/16 11:43:39;;;;;;;8.27;7.50;;;29.60;94.70;;;;;;5086797;28;20445;-39
2021/06/16 11:46:09;;;;;;;8.23;7.53;;;29.60;92.50;;;;;;5071882;28;20418;-39
2021/06/16 11:48:34;;;;;;;8.63;7.73;;;29.60;91.80;;;;;;5087081;28;20461;-39
2021/06/16 11:51:00;;;;;;;7.43;6.90;;;29.50;91.50;;;;;;5085571;28;20406;-39
2021/06/16 11:53:31;;;;;;;7.43;6.90;;;29.60;92.90;;;;;;5081617;28;20547;-39
2021/06/16 11:56:00;;;;;;;7.80;7.10;;;29.70;92.00;;;;;;5089266;28;20188;-39
2021/06/16 11:58:26;;;;;;;7.43;6.83;;;29.70;92.10;;;;;;5089439;28;20418;-39
2021/06/16 12:01:02;;;;;;;7.77;7.00;;;29.60;91.30;;;;;;5088826;28;20421;-39
2021/06/16 12:03:28;;;;;;;7.20;6.70;;;29.50;90.90;;;;;;5089220;28;20184;-39
2021/06/16 12:06:06;;;;;;;7.73;7.13;;;29.40;91.10;;;;;;5083812;28;20864;-39
2021/06/16 12:08:33;;;;;;;7.10;6.40;;;29.50;91.60;;;;;;5083037;28;20465;-39
2021/06/16 12:11:00;;;;;;;7.30;6.70;;;29.50;90.90;;;;;;5089025;28;20924;-39
2021/06/16 12:13:26;;;;;;;6.47;5.97;;;29.60;90.90;;;;;;5088995;28;20851;-39
2021/06/16 12:15:52;;;;;;;6.70;6.10;;;29.60;91.10;;;;;;5088714;28;20924;-39
2021/06/16 12:18:18;;;;;;;7.07;6.50;;;29.70;90.80;;;;;;5070597;28;20419;-39
2021/06/16 12:20:51;;;;;;;6.37;5.93;;;29.80;91.20;;;;;;5085814;28;20587;-39
2021/06/16 12:23:22;;;;;;;7.27;6.67;;;29.80;90.60;;;;;;5087176;28;20901;-39
2021/06/16 12:25:49;;;;;;;6.07;5.67;;;29.80;91.60;;;;;;5088840;28;20437;-39
2021/06/16 12:28:16;;;;;;;6.80;6.30;;;29.80;89.50;;;;;;5088511;28;20802;-39
2021/06/16 12:30:42;;;;;;;7.17;6.10;;;29.60;90.20;;;;;;5088172;28;20465;-39
2021/06/16 12:33:19;;;;;;;6.50;5.90;;;29.50;90.10;;;;;;5088016;28;20422;-39
2021/06/16 12:35:57;;;;;;;5.97;5.47;;;29.60;90.70;;;;;;5086358;28;20434;-39
2021/06/16 12:38:58;;;;;;;6.50;6.00;;;29.50;90.40;;;;;;5082760;28;20462;-39
2021/06/16 12:41:28;;;;;;;6.60;6.00;;;29.50;90.50;;;;;;5084183;28;20428;-39
2021/06/16 12:44:24;;;;;;;6.40;5.80;;;29.60;91.10;;;;;;5088320;28;20689;-39
2021/06/16 12:46:53;;;;;;;6.10;5.60;;;29.60;87.90;;;;;;5076909;28;20434;-39
2021/06/16 12:49:19;;;;;;;6.53;5.83;;;29.60;87.70;;;;;;5087683;28;20489;-39
2021/06/16 12:51:47;;;;;;;6.53;6.03;;;29.60;89.60;;;;;;5087404;28;20831;-39